28FA weather

N Broward Medical Center Heliport
Pompano Beach, Florida, United States

Public forecast

Using degrees Fahrenheit for public forecast. Weather courtesy of forecast.io.

METAR (pilot weather report)

Closest report is Pompano Beach Airpark, 2.0 nm (3.6 km) SSE. Retrieved 2019/06/25 08:53 UTC (14 minutes ago):

KPMP 250853Z AUTO 00000KT 10SM CLR 28/24 A3000 RMK AO2 SLP160 T02830239 55009

TAF (pilot weather forecast)

Closest forecast is Fort Lauderdale Executive Airport, 5.5 nm (10.2 km) SSW. Retrieved 2019/06/25 06:22 UTC (3 hours ago):

TAF KFXE 250520Z 2506/2606 VRB03KT P6SM SKC FM251600 10008KT P6SM FEW030 SCT060 FM260100 VRB03KT P6SM SCT035 SCT060